createdAt,value
2023-02-27T00:00:16.332Z,0.58
2023-02-27T00:04:16.332Z,0.74
2023-02-27T00:08:16.319Z,0.83
2023-02-27T00:12:16.337Z,0.68
2023-02-27T00:16:16.376Z,0.73
2023-02-27T00:20:16.300Z,0.64
2023-02-27T00:24:16.305Z,1.07
2023-02-27T00:28:16.284Z,1.00
2023-02-27T00:32:16.334Z,0.80
2023-02-27T00:36:16.343Z,0.85
2023-02-27T00:40:16.347Z,0.80
2023-02-27T00:44:16.352Z,1.17
2023-02-27T00:48:16.347Z,0.97
2023-02-27T00:52:16.368Z,0.93
2023-02-27T00:56:16.381Z,0.75
2023-02-27T01:00:16.355Z,0.88
2023-02-27T01:04:16.393Z,1.09
2023-02-27T01:08:16.445Z,0.84
2023-02-27T01:12:16.449Z,0.82
2023-02-27T01:16:16.541Z,0.72
2023-02-27T01:20:16.513Z,0.71
2023-02-27T01:24:16.575Z,0.53
2023-02-27T01:28:16.589Z,0.72
2023-02-27T01:32:16.826Z,0.66
2023-02-27T01:36:16.729Z,0.72
2023-02-27T01:40:16.896Z,0.85
2023-02-27T01:44:16.840Z,0.83
2023-02-27T01:48:16.967Z,1.12
2023-02-27T01:52:16.959Z,0.90
2023-02-27T01:56:17.012Z,0.92
2023-02-27T02:00:17.071Z,1.00
2023-02-27T02:04:17.138Z,1.20
2023-02-27T02:08:17.200Z,1.09
2023-02-27T02:12:17.231Z,0.76
2023-02-27T02:16:17.427Z,0.79
2023-02-27T02:20:17.368Z,0.86
2023-02-27T02:24:17.467Z,1.12
2023-02-27T02:28:17.566Z,0.97
2023-02-27T02:32:17.742Z,0.76
2023-02-27T02:36:17.749Z,0.72
2023-02-27T02:40:17.885Z,0.77
2023-02-27T02:44:18.001Z,0.73
2023-02-27T02:48:18.138Z,0.79
2023-02-27T02:52:18.187Z,0.73
2023-02-27T02:56:18.310Z,0.80
2023-02-27T03:00:18.420Z,0.72
2023-02-27T03:04:18.615Z,1.03
2023-02-27T03:08:18.641Z,1.31
2023-02-27T03:12:18.767Z,0.85
2023-02-27T03:16:18.862Z,0.77
2023-02-27T03:20:18.974Z,0.74
2023-02-27T03:24:19.110Z,1.05
2023-02-27T03:28:19.224Z,1.44
2023-02-27T03:32:19.376Z,0.87
2023-02-27T03:36:19.413Z,0.79
2023-02-27T03:40:19.542Z,0.74
2023-02-27T03:44:19.666Z,1.55
2023-02-27T03:48:19.774Z,1.15
2023-02-27T03:52:19.879Z,0.95
2023-02-27T03:56:19.976Z,1.09
2023-02-27T04:00:20.070Z,0.84
2023-02-27T04:04:20.158Z,1.39
2023-02-27T04:08:21.097Z,1.70
2023-02-27T04:12:20.416Z,1.12
2023-02-27T04:16:20.505Z,0.90
2023-02-27T04:20:20.611Z,1.93
2023-02-27T04:24:20.704Z,1.85
2023-02-27T04:28:20.822Z,1.42
2023-02-27T04:32:20.958Z,1.05
2023-02-27T04:36:21.032Z,1.19
2023-02-27T04:40:21.147Z,1.74
2023-02-27T04:44:21.270Z,2.03
2023-02-27T04:48:21.419Z,1.41
2023-02-27T04:52:21.606Z,1.26
2023-02-27T04:56:21.672Z,1.59
2023-02-27T05:00:21.782Z,2.47
2023-02-27T05:04:21.897Z,1.95
2023-02-27T05:08:22.022Z,1.43
2023-02-27T05:12:22.137Z,1.29
2023-02-27T05:16:22.325Z,1.55
2023-02-27T05:20:22.392Z,2.10
2023-02-27T05:24:22.490Z,1.63
2023-02-27T05:28:23.117Z,1.40
2023-02-27T05:32:22.715Z,1.87
2023-02-27T05:36:22.842Z,1.57
2023-02-27T05:40:22.937Z,2.51
2023-02-27T05:44:23.100Z,1.73
2023-02-27T05:48:23.209Z,1.65
2023-02-27T05:52:23.358Z,2.48
2023-02-27T05:56:23.463Z,4.09
2023-02-27T06:00:23.594Z,3.28
2023-02-27T06:04:23.714Z,2.95
2023-02-27T06:08:23.860Z,4.01
2023-02-27T06:12:23.972Z,4.08
2023-02-27T06:16:24.142Z,4.45
2023-02-27T06:20:24.220Z,4.57
2023-02-27T06:24:24.357Z,4.14
2023-02-27T06:28:24.430Z,5.11
2023-02-27T06:32:24.450Z,7.97
2023-02-27T06:36:24.540Z,7.74
2023-02-27T06:40:24.670Z,15.50
2023-02-27T06:44:24.664Z,17.91
2023-02-27T06:48:24.885Z,47.17
2023-02-27T06:52:25.149Z,76.88
2023-02-27T06:56:25.325Z,108.17
2023-02-27T07:00:25.667Z,136.62
2023-02-27T07:04:25.672Z,186.66
2023-02-27T07:08:25.418Z,272.94
2023-02-27T07:12:25.550Z,292.71
2023-02-27T07:16:25.891Z,340.74
2023-02-27T07:20:26.189Z,383.65
2023-02-27T07:24:25.700Z,412.60
2023-02-27T07:28:25.736Z,440.44
2023-02-27T07:32:26.274Z,559.13
2023-02-27T07:36:26.070Z,584.61
2023-02-27T07:40:25.800Z,560.58
2023-02-27T07:44:25.782Z,547.43
2023-02-27T07:48:26.155Z,532.64
2023-02-27T07:52:26.192Z,733.89
2023-02-27T07:56:25.839Z,713.03
2023-02-27T08:00:25.599Z,651.39
2023-02-27T08:04:25.631Z,620.74
2023-02-27T08:08:25.686Z,652.30
2023-02-27T08:12:25.514Z,573.79
2023-02-27T08:16:26.139Z,533.59
2023-02-27T08:20:25.471Z,455.64
2023-02-27T08:24:25.438Z,463.91
2023-02-27T08:28:25.372Z,432.76
2023-02-27T08:32:25.365Z,430.56
2023-02-27T08:36:25.729Z,400.28
2023-02-27T08:40:25.682Z,372.01
2023-02-27T08:44:25.707Z,343.64
2023-02-27T08:48:25.711Z,271.80
2023-02-27T08:52:25.225Z,214.40
2023-02-27T08:56:25.447Z,203.44
2023-02-27T09:00:25.362Z,178.69
2023-02-27T09:04:25.080Z,184.03
2023-02-27T09:08:25.128Z,183.37
2023-02-27T09:12:25.012Z,163.73
2023-02-27T09:16:25.119Z,153.37
2023-02-27T09:20:24.956Z,145.28
2023-02-27T09:24:24.936Z,138.32
2023-02-27T09:28:24.869Z,128.09
2023-02-27T09:32:24.906Z,125.50
2023-02-27T09:36:25.748Z,123.11
2023-02-27T09:40:25.199Z,174.20
2023-02-27T09:44:36.371Z,223.75
2023-02-27T09:48:25.809Z,315.21
2023-02-27T09:52:25.214Z,578.90
2023-02-27T09:56:25.449Z,901.23
2023-02-27T10:00:25.194Z,1000.00
2023-02-27T10:04:25.696Z,997.48
2023-02-27T10:08:25.171Z,906.30
2023-02-27T10:12:25.322Z,817.71
2023-02-27T10:16:26.133Z,730.15
2023-02-27T10:20:25.516Z,666.06
2023-02-27T10:24:25.481Z,557.64
2023-02-27T10:28:25.422Z,557.87
2023-02-27T10:32:25.385Z,470.94
2023-02-27T10:36:33.584Z,418.88
2023-02-27T10:40:26.766Z,389.07
2023-02-27T10:44:25.730Z,377.26
2023-02-27T10:48:25.735Z,342.28
2023-02-27T10:52:25.197Z,419.18
2023-02-27T10:56:25.599Z,294.98
2023-02-27T11:00:25.708Z,288.16
2023-02-27T11:04:25.443Z,268.75
2023-02-27T11:08:25.411Z,259.37
2023-02-27T11:12:25.703Z,239.08
2023-02-27T11:16:25.420Z,226.73
2023-02-27T11:20:25.408Z,205.13
2023-02-27T11:24:25.380Z,189.44
2023-02-27T11:28:25.398Z,177.06
2023-02-27T11:32:25.437Z,161.81
2023-02-27T11:36:25.750Z,150.29
2023-02-27T11:40:25.774Z,138.26
2023-02-27T11:44:32.771Z,126.74
2023-02-27T11:48:26.385Z,104.75
2023-02-27T11:52:25.360Z,99.33
2023-02-27T11:56:25.730Z,90.57
2023-02-27T12:00:25.288Z,81.87
2023-02-27T12:04:25.785Z,78.95
2023-02-27T12:08:25.519Z,78.78
2023-02-27T12:12:25.747Z,61.13
2023-02-27T12:16:25.678Z,52.31
2023-02-27T12:20:25.432Z,53.71
2023-02-27T12:24:25.372Z,51.93
2023-02-27T12:28:25.758Z,47.08
2023-02-27T12:32:25.824Z,43.22
2023-02-27T12:36:25.257Z,38.04
2023-02-27T12:40:25.241Z,34.43
2023-02-27T12:44:25.197Z,32.12
2023-02-27T12:48:25.149Z,31.57
2023-02-27T12:52:25.113Z,33.84
2023-02-27T12:56:25.060Z,33.73
2023-02-27T13:00:25.250Z,35.83
2023-02-27T13:04:25.018Z,35.43
2023-02-27T13:08:24.966Z,34.09
2023-02-27T13:12:24.918Z,32.24
2023-02-27T13:16:25.279Z,30.79
2023-02-27T13:20:24.858Z,28.63
2023-02-27T13:24:25.296Z,27.29
2023-02-27T13:28:25.269Z,25.62
2023-02-27T13:32:30.009Z,23.29
2023-02-27T13:36:25.790Z,23.90
2023-02-27T13:40:24.763Z,23.42
2023-02-27T13:44:24.743Z,21.53
2023-02-27T13:48:24.688Z,22.17
2023-02-27T13:52:24.670Z,21.07
2023-02-27T13:56:24.641Z,20.23
2023-02-27T14:00:24.723Z,19.74
2023-02-27T14:04:24.877Z,17.99
2023-02-27T14:08:24.979Z,17.56
2023-02-27T14:12:27.092Z,17.29
2023-02-27T14:16:25.131Z,16.62
2023-02-27T14:20:24.991Z,16.10
2023-02-27T14:24:24.981Z,15.34
2023-02-27T14:28:24.940Z,14.64
2023-02-27T14:32:24.939Z,14.13
2023-02-27T14:36:24.920Z,13.09
2023-02-27T14:40:30.123Z,13.29
2023-02-27T14:44:25.798Z,13.31
2023-02-27T14:48:24.712Z,12.51
2023-02-27T14:52:24.713Z,12.17
2023-02-27T14:56:24.733Z,11.98
2023-02-27T15:00:24.908Z,11.63
2023-02-27T15:04:25.209Z,11.01
2023-02-27T15:08:25.657Z,10.85
2023-02-27T15:12:25.396Z,10.44
2023-02-27T15:16:25.932Z,10.35
2023-02-27T15:20:25.798Z,10.27
2023-02-27T15:24:25.776Z,10.69
2023-02-27T15:28:25.917Z,10.34
2023-02-27T15:32:26.097Z,10.28
2023-02-27T15:36:26.237Z,10.04
2023-02-27T15:40:26.406Z,9.69
2023-02-27T15:44:26.566Z,10.12
2023-02-27T15:48:26.723Z,9.96
2023-02-27T15:52:26.840Z,9.97
2023-02-27T15:56:26.984Z,9.92
2023-02-27T16:00:27.116Z,10.24
2023-02-27T16:04:27.265Z,9.83
2023-02-27T16:08:27.833Z,9.70
2023-02-27T16:12:27.534Z,9.55
2023-02-27T16:16:28.069Z,9.56
2023-02-27T16:20:27.785Z,9.93
2023-02-27T16:24:27.938Z,9.21
2023-02-27T16:28:28.053Z,8.59
2023-02-27T16:32:28.245Z,8.62
2023-02-27T16:36:28.677Z,8.31
2023-02-27T16:40:28.555Z,8.31
2023-02-27T16:44:28.642Z,7.83
2023-02-27T16:48:28.754Z,7.68
2023-02-27T16:52:28.958Z,7.57
2023-02-27T16:56:37.689Z,7.53
2023-02-27T17:00:30.086Z,7.25
2023-02-27T17:04:29.070Z,7.20
2023-02-27T17:08:28.988Z,7.29
2023-02-27T17:12:29.099Z,7.21
2023-02-27T17:16:29.667Z,6.98
2023-02-27T17:20:29.410Z,6.68
2023-02-27T17:24:29.611Z,6.50
2023-02-27T17:28:29.811Z,6.52
2023-02-27T17:32:30.038Z,6.02
2023-02-27T17:36:30.416Z,5.87
2023-02-27T17:40:29.997Z,6.05
2023-02-27T17:44:29.913Z,5.87
2023-02-27T17:48:29.885Z,5.57
2023-02-27T17:52:29.832Z,5.71
2023-02-27T17:56:30.186Z,5.40
2023-02-27T18:00:29.841Z,5.47
2023-02-27T18:04:29.821Z,5.39
2023-02-27T18:08:29.778Z,5.54
2023-02-27T18:12:29.771Z,5.52
2023-02-27T18:16:30.151Z,5.35
2023-02-27T18:20:29.638Z,5.32
2023-02-27T18:24:29.645Z,5.35
2023-02-27T18:28:29.577Z,5.31
2023-02-27T18:32:29.530Z,5.16
2023-02-27T18:36:30.015Z,5.18
2023-02-27T18:40:29.482Z,4.98
2023-02-27T18:44:29.441Z,4.94
2023-02-27T18:48:29.471Z,4.79
2023-02-27T18:52:29.389Z,4.71
2023-02-27T18:56:29.700Z,4.69
2023-02-27T19:00:29.290Z,4.57
2023-02-27T19:04:29.251Z,4.48
2023-02-27T19:08:29.238Z,4.50
2023-02-27T19:12:29.166Z,4.39
2023-02-27T19:16:29.469Z,4.28
2023-02-27T19:20:29.135Z,4.26
2023-02-27T19:24:29.062Z,4.10
2023-02-27T19:28:30.004Z,4.14
2023-02-27T19:32:28.993Z,4.12
2023-02-27T19:36:29.336Z,3.99
2023-02-27T19:40:28.951Z,3.89
2023-02-27T19:44:28.960Z,3.87
2023-02-27T19:48:28.885Z,3.79
2023-02-27T19:52:28.897Z,3.69
2023-02-27T19:56:29.377Z,3.60
2023-02-27T20:00:28.958Z,3.51
2023-02-27T20:04:28.982Z,3.43
2023-02-27T20:08:29.020Z,3.36
2023-02-27T20:12:29.043Z,3.25
2023-02-27T20:16:29.405Z,3.25
2023-02-27T20:20:31.721Z,3.11
2023-02-27T20:24:29.074Z,3.05
2023-02-27T20:28:29.022Z,3.03
2023-02-27T20:32:29.114Z,2.97
2023-02-27T20:36:28.958Z,2.89
2023-02-27T20:40:28.905Z,2.81
2023-02-27T20:44:28.892Z,2.84
2023-02-27T20:48:28.821Z,2.72
2023-02-27T20:52:28.799Z,2.64
2023-02-27T20:56:28.782Z,2.64
2023-02-27T21:00:28.701Z,2.56
2023-02-27T21:04:28.734Z,2.49
2023-02-27T21:08:28.637Z,2.44
2023-02-27T21:12:28.594Z,2.36
2023-02-27T21:16:28.567Z,2.37
2023-02-27T21:20:28.539Z,2.31
2023-02-27T21:24:28.510Z,2.26
2023-02-27T21:28:28.459Z,2.20
2023-02-27T21:32:28.408Z,2.15
2023-02-27T21:36:28.407Z,2.16
2023-02-27T21:40:28.376Z,2.11
2023-02-27T21:44:28.290Z,2.09
2023-02-27T21:48:28.245Z,2.01
2023-02-27T21:52:28.231Z,2.02
2023-02-27T21:56:28.522Z,1.97
2023-02-27T22:00:28.132Z,1.93
2023-02-27T22:04:28.102Z,1.90
2023-02-27T22:08:28.063Z,1.85
2023-02-27T22:12:28.038Z,1.89
2023-02-27T22:16:27.997Z,1.81
2023-02-27T22:20:28.046Z,1.77
2023-02-27T22:24:28.148Z,1.77
2023-02-27T22:28:28.204Z,1.72
2023-02-27T22:32:28.223Z,1.71
2023-02-27T22:36:28.245Z,1.69
2023-02-27T22:40:28.324Z,1.65
2023-02-27T22:44:28.337Z,1.63
2023-02-27T22:48:28.369Z,1.60
2023-02-27T22:52:28.467Z,1.54
2023-02-27T22:56:28.493Z,1.56
2023-02-27T23:00:28.506Z,1.54
2023-02-27T23:04:28.582Z,1.51
2023-02-27T23:08:28.621Z,1.50
2023-02-27T23:12:28.683Z,1.46
2023-02-27T23:16:28.839Z,1.46
2023-02-27T23:20:28.755Z,1.43
2023-02-27T23:24:28.784Z,1.40
2023-02-27T23:28:28.879Z,1.37
2023-02-27T23:32:28.945Z,1.36
2023-02-27T23:36:28.961Z,1.36
2023-02-27T23:40:28.980Z,1.32
2023-02-27T23:44:29.028Z,1.33
2023-02-27T23:48:29.088Z,1.29
2023-02-27T23:52:29.122Z,1.29
2023-02-27T23:56:29.156Z,1.23
